LYTV

Details ICAO LYTV (TIV)
Name Tivat
Region Serbia and Montenegro
Timezone Europe/Podgorica (UTC+1.0)
Plans Departing 311
Arriving 415
Stats Elevation 20 ft / 6 m (AMSL)
Location 42.404700° 18.723300°
Runways 1
Magnetic Variation 4.266° E
Sunrise 2018-12-11 06:05:33 UTC / 2018-12-11 07:05:33 Local
Sunset 2018-12-11 15:13:48 UTC / 2018-12-11 16:13:48 Local
Advertisement - Login to hide

Runways

ID Width Length Bearing (true/mag) Surface Threshold Overrun Markings Lighting
14 148 ft / 45 m 8,210 ft / 2,503 m 138.97° / 134.71° ASPHALT 0 ft / 0 m 0 ft / 0 m APP CENTERLINE EDGE THRESHOLD MALSF
32 148 ft / 45 m 8,210 ft / 2,503 m 318.99° / 314.72° ASPHALT 0 ft / 0 m 0 ft / 0 m APP CENTERLINE EDGE THRESHOLD MALSF

Approach Navaids

Runway Type Ident Frequency Range Bearing (true/mag) Slope Elevation
32 DME TIV 111.30 MHz 18 nm / 33 km - - 49 ft / 15 m (AMSL)
32 LOC-LOC TIV 111.30 MHz 50 nm / 93 km 339.00° / 334.73° - 56 ft / 17 m (AMSL)

Map

Weather


0- 5 10 15 20 25 30 35+ Temperature / °C

Clouds and Precipitation
Forecast for 2018-12-11 12:00 UTC. Updated 2 hours ago

Ground ~20,000 ft ~40,000 ft Winds

METAR

LYTV 111100Z VRB07KT CAVOK 12/M06 Q1016 NOSIG

TAF

TAF LYTV 110500Z 1106/1206 36006KT CAVOK TX14/1112Z TN02/1205Z TEMPO 1106/1109 01015G25KT

Frequencies

Tower 118.00 MHz Tivat tower
Approach 118.00 MHz Tivat Approach
Warning: Do not use this data for real-world aviation or navigation. No guarantee of current accuracy is given.